YMHB

Hobart International Airport

Airport
ICAO code
YMHB
IATA Code
HBA
Summary
ICAO Region
APAC
ICAO Territory
Location

Cambridge, Tasmania

Serving
Hobart
Elevation
13 ft
Coordinates
42° 50' 13" S , 147° 30' 20" E
KCC
Metar
Observation
YMHB 062330Z 15008KT 9999 FEW040 SCT180 14/06 Q0999 RF00.0/000.0
Station
Hobart Airport
Date/Time
2022-12-06 23:30:00
Wind direction
150°
Wind speed
08 kts
Lowest cloud amount
few clouds
Temperature
14°C
Dew point
6°C
Humidity
58%
QNH
999 hPa
Weather condition
n/a

Hobart International Airport is an airport located in Cambridge, 17 kilometres east of Hobart, Tasmania.

Climatology

Mild temperate oceanic climate (Köppen climate classification Cfb).

Airport map

Aerial View

Airport accidents

SKYbrary Partners:

Safety knowledge contributed by: